createdAt,value
2022-10-30T00:00:25.035Z,4.1
2022-10-30T00:02:28.535Z,4.7
2022-10-30T00:04:31.914Z,4.7
2022-10-30T00:10:45.320Z,5
2022-10-30T00:12:48.749Z,4.8
2022-10-30T00:16:55.521Z,6.1
2022-10-30T00:18:58.994Z,4.6
2022-10-30T00:21:03.563Z,5.1
2022-10-30T00:23:05.880Z,5.2
2022-10-30T00:25:12.404Z,5.6
2022-10-30T00:27:15.846Z,4.3
2022-10-30T00:29:19.299Z,4.4
2022-10-30T00:30:22.547Z,4.9
2022-10-30T00:32:26.036Z,5.4
2022-10-30T00:34:29.489Z,4.8
2022-10-30T00:36:32.939Z,5.7
2022-10-30T00:38:39.507Z,4.7
2022-10-30T00:40:42.961Z,6.1
2022-10-30T00:42:46.436Z,5.4
2022-10-30T00:44:49.890Z,5.7
2022-10-30T00:46:53.364Z,5.8
2022-10-30T00:48:56.834Z,5.8
2022-10-30T00:51:00.276Z,7.3
2022-10-30T00:53:06.848Z,6.6
2022-10-30T00:55:10.347Z,6.3
2022-10-30T00:57:13.824Z,6.3
2022-10-30T00:59:17.286Z,5.8
2022-10-30T01:01:20.929Z,7.8
2022-10-30T01:03:24.272Z,6.4
2022-10-30T01:05:27.992Z,6.9
2022-10-30T01:07:34.354Z,7.5
2022-10-30T01:09:37.846Z,7.9
2022-10-30T01:11:41.348Z,8.3
2022-10-30T01:13:44.820Z,7.6
2022-10-30T01:15:48.278Z,7
2022-10-30T01:17:51.803Z,5.9
2022-10-30T01:19:55.314Z,6.5
2022-10-30T01:22:01.914Z,6.9
2022-10-30T01:24:05.400Z,7.2
2022-10-30T01:26:08.922Z,8.1
2022-10-30T01:27:12.184Z,7.6
2022-10-30T01:29:15.702Z,7
2022-10-30T01:31:19.185Z,7.3
2022-10-30T01:33:22.697Z,8.2
2022-10-30T01:35:29.294Z,9.3
2022-10-30T01:37:32.878Z,8.7
2022-10-30T01:39:36.313Z,13.1
2022-10-30T01:41:39.797Z,13.3
2022-10-30T01:43:43.295Z,10.9
2022-10-30T01:45:46.795Z,10.3
2022-10-30T01:47:50.272Z,10.6
2022-10-30T01:49:56.838Z,9.6
2022-10-30T01:52:00.316Z,9.1
2022-10-30T01:54:03.807Z,7.6
2022-10-30T01:56:07.315Z,10
2022-10-30T01:58:10.807Z,9.2
2022-10-30T02:00:14.309Z,7.3
2022-10-30T02:02:18.047Z,7.2
2022-10-30T02:04:24.385Z,7.9
2022-10-30T02:06:27.893Z,8.6
2022-10-30T02:08:31.375Z,7.8
2022-10-30T02:10:34.922Z,7.6
2022-10-30T02:12:38.392Z,7.4
2022-10-30T02:14:41.848Z,7.8
2022-10-30T02:16:45.561Z,7.3
2022-10-30T02:18:51.956Z,7.4
2022-10-30T02:20:55.414Z,7
2022-10-30T02:22:59.610Z,6.7
2022-10-30T02:25:28.328Z,7.5
2022-10-30T02:27:31.813Z,6.4
2022-10-30T02:29:35.301Z,7.8
2022-10-30T02:31:41.895Z,8.7
2022-10-30T02:33:45.384Z,7.4
2022-10-30T02:35:48.874Z,7.2
2022-10-30T02:37:52.370Z,8.4
2022-10-30T02:48:12.958Z,7.5
2022-10-30T02:50:16.461Z,8.6
2022-10-30T02:52:19.985Z,7.8
2022-10-30T02:54:23.451Z,7.3
2022-10-30T03:00:37.078Z,7.9
2022-10-30T03:02:40.645Z,8.3
2022-10-30T03:04:44.094Z,7.7
2022-10-30T03:06:47.599Z,8.1
2022-10-30T03:08:51.111Z,7.6
2022-10-30T03:10:54.639Z,7.6
2022-10-30T03:12:58.152Z,8
2022-10-30T03:15:04.737Z,8.3
2022-10-30T03:17:08.227Z,7.1
2022-10-30T03:19:13.284Z,8.1
2022-10-30T03:20:16.551Z,8.9
2022-10-30T03:22:20.041Z,8.2
2022-10-30T03:24:23.559Z,8.4
2022-10-30T03:26:27.052Z,7.6
2022-10-30T03:28:33.649Z,8.2
2022-10-30T03:30:37.149Z,8.7
2022-10-30T03:32:40.656Z,7.8
2022-10-30T03:34:44.188Z,7.3
2022-10-30T03:36:47.811Z,7.6
2022-10-30T03:38:51.170Z,7.1
2022-10-30T03:40:54.686Z,6.5
2022-10-30T03:45:04.775Z,7.8
2022-10-30T03:47:08.356Z,7.9
2022-10-30T03:49:11.803Z,6.8
2022-10-30T03:51:15.316Z,7.2
2022-10-30T03:53:18.812Z,7.3
2022-10-30T03:55:22.328Z,6.9
2022-10-30T03:57:28.969Z,8
2022-10-30T04:01:36.157Z,8.2
2022-10-30T04:03:39.438Z,8.5
2022-10-30T04:05:42.976Z,7.6
2022-10-30T04:07:46.443Z,7.4
2022-10-30T04:09:50.002Z,7.9
2022-10-30T04:11:56.594Z,8.4
2022-10-30T04:14:00.126Z,8.2
2022-10-30T04:16:03.616Z,8.6
2022-10-30T04:17:06.926Z,8.4
2022-10-30T04:19:10.440Z,7
2022-10-30T04:21:13.965Z,6.5
2022-10-30T04:23:17.458Z,6.8
2022-10-30T04:25:24.046Z,7.6
2022-10-30T04:27:27.596Z,6.3
2022-10-30T04:29:31.065Z,6.9
2022-10-30T04:31:34.590Z,7.1
2022-10-30T04:33:38.072Z,7.1
2022-10-30T04:35:41.610Z,7.9
2022-10-30T04:37:45.119Z,9.7
2022-10-30T04:39:51.734Z,7.3
2022-10-30T04:41:55.234Z,7.2
2022-10-30T04:43:58.748Z,6.7
2022-10-30T04:46:02.229Z,8.1
2022-10-30T04:48:05.731Z,7.8
2022-10-30T04:50:09.231Z,8.1
2022-10-30T04:52:12.779Z,7.9
2022-10-30T04:54:19.346Z,9
2022-10-30T04:56:22.874Z,7.7
2022-10-30T04:58:26.365Z,8
2022-10-30T05:00:29.881Z,7.6
2022-10-30T05:04:36.955Z,8.6
2022-10-30T05:08:47.051Z,8.9
2022-10-30T05:12:54.154Z,8
2022-10-30T05:13:57.430Z,9.7
2022-10-30T05:16:00.948Z,8.4
2022-10-30T05:18:04.485Z,8.2
2022-10-30T05:20:08.014Z,9.4
2022-10-30T05:22:14.609Z,9.4
2022-10-30T05:24:18.124Z,8
2022-10-30T05:26:21.649Z,8.7
2022-10-30T05:28:25.180Z,9.9
2022-10-30T05:30:28.743Z,8.7
2022-10-30T05:32:32.257Z,9.7
2022-10-30T05:34:35.804Z,8.8
2022-10-30T05:36:42.433Z,10.1
2022-10-30T05:38:45.966Z,9.7
2022-10-30T05:42:53.038Z,10
2022-10-30T05:47:00.312Z,9.7
2022-10-30T05:49:03.632Z,9.7
2022-10-30T05:51:10.263Z,10.5
2022-10-30T05:53:13.785Z,11.5
2022-10-30T05:55:17.346Z,10.3
2022-10-30T05:57:20.882Z,10.6
2022-10-30T06:01:28.119Z,10.6
2022-10-30T06:03:31.474Z,9.8
2022-10-30T06:07:41.677Z,9.8
2022-10-30T06:09:45.213Z,10.7
2022-10-30T06:12:03.440Z,10.7
2022-10-30T06:14:06.978Z,10.5
2022-10-30T06:16:10.523Z,11.6
2022-10-30T06:18:17.221Z,12.6
2022-10-30T06:20:20.684Z,10.6
2022-10-30T06:22:24.244Z,12.2
2022-10-30T06:24:27.790Z,11.3
2022-10-30T06:26:31.346Z,11.9
2022-10-30T06:28:34.836Z,11
2022-10-30T06:30:38.411Z,11.2
2022-10-30T06:32:45.042Z,13
2022-10-30T06:34:48.598Z,12
2022-10-30T06:36:52.183Z,10.5
2022-10-30T06:38:55.697Z,10.9
2022-10-30T06:40:59.259Z,11.4
2022-10-30T06:43:03.220Z,13.3
2022-10-30T06:47:12.956Z,13
2022-10-30T06:49:16.510Z,11.6
2022-10-30T06:53:23.599Z,11.3
2022-10-30T06:55:27.151Z,11.6
2022-10-30T06:57:30.683Z,12.1
2022-10-30T06:59:34.251Z,12.5
2022-10-30T07:01:40.936Z,12.4
2022-10-30T07:03:44.524Z,13.6
2022-10-30T07:05:47.982Z,13
2022-10-30T07:06:51.288Z,13.7
2022-10-30T07:08:54.868Z,12.6
2022-10-30T07:10:58.387Z,13.9
2022-10-30T07:13:02.388Z,14.2
2022-10-30T07:15:08.551Z,14
2022-10-30T07:17:12.141Z,13.6
2022-10-30T07:19:15.662Z,13.5
2022-10-30T07:21:19.212Z,14.6
2022-10-30T07:23:22.760Z,16.2
2022-10-30T07:25:26.308Z,16.3
2022-10-30T07:27:29.860Z,14.6
2022-10-30T07:29:36.492Z,15.3
2022-10-30T07:31:42.650Z,13.1
2022-10-30T07:33:43.585Z,13.6
2022-10-30T07:35:47.109Z,13.6
2022-10-30T07:37:50.617Z,12
2022-10-30T07:39:54.163Z,11.9
2022-10-30T07:41:57.706Z,10
2022-10-30T07:44:04.292Z,11.1
2022-10-30T07:46:07.843Z,9.9
2022-10-30T07:48:11.359Z,7.7
2022-10-30T07:50:14.847Z,8.2
2022-10-30T07:52:18.383Z,9.1
2022-10-30T07:54:21.892Z,8.6
2022-10-30T07:56:25.407Z,8.3
2022-10-30T07:58:32.031Z,9.9
2022-10-30T08:00:35.499Z,9.1
2022-10-30T08:02:39.207Z,8.5
2022-10-30T08:03:42.311Z,9.1
2022-10-30T08:05:45.829Z,10.6
2022-10-30T08:07:49.338Z,8.2
2022-10-30T08:09:52.862Z,8.3
2022-10-30T08:11:59.427Z,8.9
2022-10-30T08:16:06.431Z,9.4
2022-10-30T08:18:09.926Z,8.8
2022-10-30T08:20:13.424Z,9.9
2022-10-30T08:22:16.948Z,8.4
2022-10-30T08:24:20.466Z,10.3
2022-10-30T08:26:27.073Z,8.6
2022-10-30T08:28:32.867Z,8
2022-10-30T08:30:34.047Z,9.7
2022-10-30T08:32:37.501Z,10.5
2022-10-30T08:34:40.980Z,10.3
2022-10-30T08:36:46.889Z,10.1
2022-10-30T08:38:47.959Z,10.4
2022-10-30T08:40:54.553Z,10.3
2022-10-30T08:42:58.024Z,10.8
2022-10-30T08:45:01.516Z,9.4
2022-10-30T08:47:04.984Z,10.5
2022-10-30T08:49:08.459Z,11.3
2022-10-30T08:51:11.935Z,10
2022-10-30T08:53:15.372Z,9.3
2022-10-30T08:55:21.885Z,10
2022-10-30T08:57:25.306Z,9.2
2022-10-30T08:59:28.777Z,9.5
2022-10-30T09:00:32.009Z,9.2
2022-10-30T09:02:35.569Z,9.6
2022-10-30T09:04:38.914Z,8.4
2022-10-30T09:06:42.404Z,9.3
2022-10-30T09:10:52.367Z,8.5
2022-10-30T09:12:55.799Z,9.6
2022-10-30T09:14:59.267Z,9.2
2022-10-30T09:17:04.122Z,8.3
2022-10-30T09:19:07.448Z,8.1
2022-10-30T09:21:10.766Z,8.4
2022-10-30T09:23:17.199Z,8.7
2022-10-30T09:25:20.482Z,8.3
2022-10-30T09:27:23.870Z,8.4
2022-10-30T09:29:27.157Z,7.1
2022-10-30T09:31:30.409Z,7.9
2022-10-30T09:33:33.698Z,7.9
2022-10-30T09:35:36.995Z,7.1
2022-10-30T09:37:43.181Z,7.9
2022-10-30T09:39:46.434Z,7.5
2022-10-30T09:41:51.072Z,7.9
2022-10-30T09:43:52.902Z,8.7
2022-10-30T09:45:56.105Z,6.7
2022-10-30T09:47:59.642Z,7.3
2022-10-30T09:50:02.505Z,8.3
2022-10-30T09:52:08.712Z,6.9
2022-10-30T09:54:11.909Z,7.1
2022-10-30T09:56:15.102Z,6.8
2022-10-30T09:58:32.736Z,7.4
2022-10-30T10:00:35.901Z,7.8
2022-10-30T10:02:39.140Z,7.8
2022-10-30T10:04:45.234Z,7.2
2022-10-30T10:06:48.396Z,8.2
2022-10-30T10:08:51.516Z,7.7
2022-10-30T10:10:54.640Z,7.6
2022-10-30T10:13:01.017Z,7.6
2022-10-30T10:15:00.891Z,7.8
2022-10-30T10:17:04.041Z,7.6
2022-10-30T10:19:10.175Z,8.1
2022-10-30T10:21:13.276Z,6.6
2022-10-30T10:23:16.425Z,7.3
2022-10-30T10:25:19.499Z,6.9
2022-10-30T10:27:22.576Z,7
2022-10-30T10:29:25.679Z,6.8
2022-10-30T10:31:28.798Z,8.2
2022-10-30T10:33:34.900Z,8.1
2022-10-30T10:35:37.938Z,8
2022-10-30T10:37:41.010Z,7.7
2022-10-30T10:39:44.114Z,7.5
2022-10-30T10:41:52.568Z,7.7
2022-10-30T10:43:50.224Z,7.9
2022-10-30T10:45:53.286Z,7.6
2022-10-30T10:50:02.469Z,7.3
2022-10-30T10:52:05.476Z,8.5
2022-10-30T10:53:08.543Z,7.7
2022-10-30T10:55:11.754Z,6.6
2022-10-30T10:57:14.646Z,8.9
2022-10-30T10:59:17.726Z,7.8
2022-10-30T11:01:23.970Z,8.3
2022-10-30T11:03:26.879Z,7.6
2022-10-30T11:05:29.938Z,7.4
2022-10-30T11:07:32.998Z,6.6
2022-10-30T11:09:36.047Z,9.3
2022-10-30T11:11:39.099Z,6.4
2022-10-30T11:13:42.154Z,6.7
2022-10-30T11:19:54.333Z,7.2
2022-10-30T11:26:03.479Z,6.4
2022-10-30T11:28:06.481Z,7.1
2022-10-30T11:32:15.598Z,8.7
2022-10-30T11:34:18.640Z,7.1
2022-10-30T11:36:21.673Z,7.9
2022-10-30T11:38:24.727Z,7.2
2022-10-30T11:40:27.968Z,6.9
2022-10-30T11:42:30.837Z,6.6
2022-10-30T11:44:36.956Z,7.6
2022-10-30T11:46:40.017Z,6.9
2022-10-30T11:48:43.073Z,7.5
2022-10-30T11:49:46.129Z,7.3
2022-10-30T11:51:49.217Z,7.7
2022-10-30T11:53:52.294Z,7.4
2022-10-30T11:58:01.979Z,8.8
2022-10-30T12:06:13.887Z,9.4
2022-10-30T12:10:20.093Z,8.6
2022-10-30T12:12:26.243Z,9.3
2022-10-30T12:14:29.380Z,10.2
2022-10-30T12:16:32.520Z,7.1
2022-10-30T12:18:35.614Z,6.9
2022-10-30T12:20:38.737Z,7.2
2022-10-30T12:22:41.878Z,8.3
2022-10-30T12:24:44.992Z,7.6
2022-10-30T12:26:51.128Z,7.8
2022-10-30T12:28:54.276Z,8.2
2022-10-30T12:30:57.365Z,7.9
2022-10-30T12:33:00.827Z,7.6
2022-10-30T12:35:03.690Z,7.3
2022-10-30T12:37:06.838Z,7.8
2022-10-30T12:39:09.938Z,8
2022-10-30T12:41:16.095Z,7.4
2022-10-30T12:43:19.290Z,7.4
2022-10-30T12:45:22.465Z,8.1
2022-10-30T12:46:25.501Z,6.2
2022-10-30T12:48:28.654Z,8.5
2022-10-30T12:50:31.764Z,7.8
2022-10-30T12:52:34.963Z,7.8
2022-10-30T12:54:41.133Z,6.2
2022-10-30T12:56:44.295Z,6.5
2022-10-30T12:58:47.444Z,6.8
2022-10-30T13:00:50.602Z,7.6
2022-10-30T13:02:53.791Z,8.4
2022-10-30T13:04:56.927Z,7.1
2022-10-30T13:07:00.121Z,7.2
2022-10-30T13:09:06.301Z,8.3
2022-10-30T13:11:09.600Z,8.7
2022-10-30T13:13:12.660Z,6.7
2022-10-30T13:15:15.861Z,6.8
2022-10-30T13:17:19.001Z,7.5
2022-10-30T13:19:22.168Z,6.7
2022-10-30T13:25:34.755Z,6.6
2022-10-30T13:27:37.966Z,6.4
2022-10-30T13:29:41.129Z,6.9
2022-10-30T13:31:44.311Z,5.5
2022-10-30T13:33:47.483Z,6.4
2022-10-30T13:35:50.681Z,5.9
2022-10-30T13:37:57.243Z,7
2022-10-30T13:42:03.274Z,4.8
2022-10-30T13:44:26.990Z,4.9
2022-10-30T13:46:30.189Z,5.9
2022-10-30T13:48:33.385Z,4.4
2022-10-30T13:50:39.596Z,5.8
2022-10-30T13:52:42.779Z,4.4
2022-10-30T13:54:45.996Z,6.9
2022-10-30T13:56:49.174Z,10.7
2022-10-30T13:58:52.353Z,6.8
2022-10-30T14:00:55.530Z,7.5
2022-10-30T14:02:59.007Z,7.6
2022-10-30T14:05:04.928Z,8
2022-10-30T14:07:08.113Z,8.4
2022-10-30T14:09:11.302Z,8.1
2022-10-30T14:11:14.607Z,7.8
2022-10-30T14:13:17.789Z,7.6
2022-10-30T14:15:20.990Z,8.5
2022-10-30T14:17:24.204Z,7.8
2022-10-30T14:19:30.437Z,7.5
2022-10-30T14:21:33.627Z,8
2022-10-30T14:23:36.860Z,7.6
2022-10-30T14:25:40.054Z,8.6
2022-10-30T14:27:43.242Z,7.9
2022-10-30T14:29:46.455Z,7.3
2022-10-30T14:31:49.671Z,8
2022-10-30T14:33:55.902Z,8.4
2022-10-30T14:35:59.244Z,7.2
2022-10-30T14:38:02.580Z,8
2022-10-30T14:39:05.597Z,7.6
2022-10-30T14:41:11.260Z,8.1
2022-10-30T14:47:21.533Z,8.4
2022-10-30T14:49:24.733Z,8.6
2022-10-30T14:51:27.971Z,8.2
2022-10-30T14:53:31.207Z,8.2
2022-10-30T14:55:34.461Z,8.4
2022-10-30T14:57:37.753Z,7.2
2022-10-30T14:59:40.968Z,10.1
2022-10-30T15:01:47.375Z,8
2022-10-30T15:03:50.501Z,9.5
2022-10-30T15:05:53.904Z,7.7
2022-10-30T15:07:57.516Z,8.5
2022-10-30T15:10:00.467Z,7.7
2022-10-30T15:16:15.117Z,8.6
2022-10-30T15:22:25.135Z,6.4
2022-10-30T15:26:31.761Z,8.6
2022-10-30T15:28:35.109Z,7.4
2022-10-30T15:30:43.383Z,7.9
2022-10-30T15:34:48.344Z,7
2022-10-30T15:37:54.957Z,7.3
2022-10-30T15:40:00.645Z,8.6
2022-10-30T15:42:01.555Z,8.1
2022-10-30T15:46:11.252Z,7.9
2022-10-30T15:48:14.609Z,8.5
2022-10-30T15:52:21.269Z,7.4
2022-10-30T15:54:24.548Z,7.2
2022-10-30T15:56:27.821Z,12.4
2022-10-30T15:58:34.258Z,14.1
2022-10-30T16:00:37.651Z,15.1
2022-10-30T16:02:41.082Z,12.1
2022-10-30T16:04:44.386Z,11.8
2022-10-30T16:06:47.711Z,11.2
2022-10-30T16:08:51.071Z,11.7
2022-10-30T16:10:54.485Z,11.9
2022-10-30T16:13:01.454Z,24.9
2022-10-30T16:17:07.772Z,40.1
2022-10-30T16:19:11.185Z,25.6
2022-10-30T16:21:14.579Z,14.4
2022-10-30T16:23:17.982Z,10.4
2022-10-30T16:25:21.553Z,8.6
2022-10-30T16:27:27.836Z,10.9
2022-10-30T16:29:31.213Z,12.2
2022-10-30T16:31:34.640Z,10.8
2022-10-30T16:32:37.861Z,9.5
2022-10-30T16:38:48.129Z,12.3
2022-10-30T16:47:04.862Z,17.7
2022-10-30T16:49:08.265Z,13.1
2022-10-30T16:53:15.049Z,11.1
2022-10-30T16:55:21.594Z,15.2
2022-10-30T16:57:25.012Z,14.4
2022-10-30T16:59:28.391Z,15.5
2022-10-30T17:01:31.983Z,14.3
2022-10-30T17:03:35.197Z,13.9
2022-10-30T17:05:38.593Z,13.4
2022-10-30T17:07:42.013Z,14.1
2022-10-30T17:09:48.518Z,12.6
2022-10-30T17:11:51.907Z,12.2
2022-10-30T17:13:55.295Z,12.4
2022-10-30T17:15:58.720Z,10.1
2022-10-30T17:20:05.584Z,12
2022-10-30T17:22:08.888Z,13.2
2022-10-30T17:32:49.577Z,11.8
2022-10-30T17:41:06.297Z,14.4
2022-10-30T17:43:09.478Z,12.6
2022-10-30T17:47:16.270Z,14
2022-10-30T17:51:26.177Z,17
2022-10-30T17:53:29.590Z,13.7
2022-10-30T17:57:36.383Z,14.8
2022-10-30T17:59:39.762Z,14.5
2022-10-30T18:01:43.214Z,17
2022-10-30T18:03:46.490Z,15
2022-10-30T18:05:53.170Z,14.7
2022-10-30T18:07:56.376Z,15.1
2022-10-30T18:09:59.802Z,15.7
2022-10-30T18:12:03.193Z,13.4
2022-10-30T18:14:06.571Z,13.3
2022-10-30T18:16:09.981Z,14.5
2022-10-30T18:18:13.393Z,14.3
2022-10-30T18:20:19.924Z,14.5
2022-10-30T18:24:26.739Z,13.2
2022-10-30T18:25:30.005Z,13.9
2022-10-30T18:27:33.385Z,16
2022-10-30T18:29:36.814Z,14.4
2022-10-30T18:31:40.208Z,14.1
2022-10-30T18:33:46.734Z,14.9
2022-10-30T18:35:50.144Z,13.9
2022-10-30T18:37:53.563Z,13.5
2022-10-30T18:39:56.989Z,12.4
2022-10-30T18:42:00.409Z,13
2022-10-30T18:44:03.835Z,11.9
2022-10-30T18:46:07.280Z,10.2
2022-10-30T18:48:13.812Z,11.3
2022-10-30T18:50:17.212Z,10.5
2022-10-30T18:52:20.621Z,10
2022-10-30T18:54:24.060Z,10.6
2022-10-30T18:56:27.457Z,10.4
2022-10-30T18:58:30.889Z,10.8
2022-10-30T19:00:45.047Z,8.6
2022-10-30T19:02:40.966Z,9.5
2022-10-30T19:04:44.292Z,8.2
2022-10-30T19:06:47.777Z,8.7
2022-10-30T19:10:54.577Z,8.5
2022-10-30T19:13:11.584Z,7.4
2022-10-30T19:15:01.438Z,7.9
2022-10-30T19:17:07.970Z,7.5
2022-10-30T19:19:11.432Z,7.9
2022-10-30T19:21:16.029Z,8.8
2022-10-30T19:22:18.097Z,7.9
2022-10-30T19:24:21.904Z,9
2022-10-30T19:26:25.375Z,8.2
2022-10-30T19:28:28.808Z,9
2022-10-30T19:30:35.311Z,10.1
2022-10-30T19:32:38.766Z,9.5
2022-10-30T19:34:42.231Z,12.5
2022-10-30T19:36:45.663Z,9.3
2022-10-30T19:38:49.089Z,12.7
2022-10-30T19:40:52.561Z,9.7
2022-10-30T19:42:56.020Z,12.9
2022-10-30T19:45:02.504Z,11.2
2022-10-30T19:47:05.964Z,11.7
2022-10-30T19:53:16.334Z,11.9
2022-10-30T19:55:19.777Z,10.3
2022-10-30T19:57:23.240Z,10.6
2022-10-30T19:59:29.786Z,10.4
2022-10-30T20:01:33.408Z,10.6
2022-10-30T20:03:36.724Z,11
2022-10-30T20:05:40.164Z,10.6
2022-10-30T20:07:43.605Z,11.3
2022-10-30T20:09:47.081Z,10.2
2022-10-30T20:11:50.497Z,12.4
2022-10-30T20:13:57.093Z,12.9
2022-10-30T20:19:07.282Z,12.2
2022-10-30T20:21:10.759Z,12.7
2022-10-30T20:23:14.192Z,13.9
2022-10-30T20:25:17.686Z,13.6
2022-10-30T20:29:27.677Z,11.9
2022-10-30T20:31:31.158Z,11.5
2022-10-30T20:33:34.605Z,11.5
2022-10-30T20:35:38.061Z,10.9
2022-10-30T20:37:41.511Z,10
2022-10-30T20:39:44.940Z,9.5
2022-10-30T20:41:51.493Z,10.2
2022-10-30T20:43:54.965Z,10.2
2022-10-30T20:45:58.427Z,10
2022-10-30T20:48:02.426Z,9.7
2022-10-30T20:50:05.333Z,10.5
2022-10-30T20:52:08.809Z,9.8
2022-10-30T20:54:12.277Z,10.2
2022-10-30T20:56:18.816Z,13
2022-10-30T20:58:22.270Z,14.1
2022-10-30T21:00:25.751Z,12.1
2022-10-30T21:04:32.644Z,10.7
2022-10-30T21:08:41.139Z,10.9
2022-10-30T21:10:47.667Z,14.2
2022-10-30T21:12:51.170Z,13.1
2022-10-30T21:14:54.608Z,12
2022-10-30T21:17:18.540Z,10.1
2022-10-30T21:19:22.027Z,13.1
2022-10-30T21:21:25.969Z,12.2
2022-10-30T21:25:35.520Z,12.1
2022-10-30T21:27:39.030Z,11.5
2022-10-30T21:29:42.461Z,10.5
2022-10-30T21:31:45.907Z,10.9
2022-10-30T21:33:49.425Z,10.7
2022-10-30T21:37:59.430Z,10.7
2022-10-30T21:44:09.900Z,12.1
2022-10-30T21:46:13.355Z,12.5
2022-10-30T21:48:16.839Z,11.9
2022-10-30T21:50:20.329Z,11.4
2022-10-30T21:52:26.931Z,11.2
2022-10-30T21:54:30.405Z,12.4
2022-10-30T21:56:35.293Z,11.1
2022-10-30T21:58:37.378Z,11
2022-10-30T22:00:40.924Z,9.9
2022-10-30T22:02:44.349Z,11.1
2022-10-30T22:04:47.851Z,11
2022-10-30T22:06:54.437Z,10.6
2022-10-30T22:12:04.684Z,9.5
2022-10-30T22:14:08.184Z,11.5
2022-10-30T22:16:11.673Z,9.1
2022-10-30T22:18:15.217Z,10.4
2022-10-30T22:22:25.291Z,10.9
2022-10-30T22:24:28.793Z,9.8
2022-10-30T22:26:32.280Z,9.6
2022-10-30T22:28:35.748Z,10.5
2022-10-30T22:30:39.255Z,10.5
2022-10-30T22:32:42.776Z,9.7
2022-10-30T22:34:49.387Z,10.4
2022-10-30T22:36:52.923Z,9
2022-10-30T22:38:56.433Z,9.7
2022-10-30T22:40:59.991Z,9.7
2022-10-30T22:43:03.549Z,9.2
2022-10-30T22:45:06.971Z,9.4
2022-10-30T22:47:10.442Z,9.4
2022-10-30T22:49:17.015Z,10.4
2022-10-30T22:51:20.526Z,8.4
2022-10-30T22:53:23.982Z,8
2022-10-30T22:55:27.518Z,7.8
2022-10-30T22:57:30.999Z,9
2022-10-30T22:59:34.509Z,9.7
2022-10-30T23:01:38.138Z,7.7
2022-10-30T23:03:44.687Z,8.9
2022-10-30T23:05:48.036Z,8.6
2022-10-30T23:07:51.568Z,8
2022-10-30T23:08:54.860Z,8.5
2022-10-30T23:10:58.366Z,7.3
2022-10-30T23:13:02.002Z,7.7
2022-10-30T23:15:05.361Z,6.4
2022-10-30T23:17:11.950Z,7
2022-10-30T23:19:15.472Z,7.4
2022-10-30T23:21:18.972Z,6.6
2022-10-30T23:23:22.542Z,6.5
2022-10-30T23:25:25.999Z,6.4
2022-10-30T23:27:29.509Z,6.7
2022-10-30T23:31:39.637Z,4.6
2022-10-30T23:41:57.299Z,4.5
2022-10-30T23:44:00.751Z,5.2
2022-10-30T23:46:07.320Z,4.9
2022-10-30T23:48:10.808Z,3.6
2022-10-30T23:50:14.383Z,4.9
2022-10-30T23:52:17.905Z,4
2022-10-30T23:54:21.398Z,5.3
2022-10-30T23:56:24.907Z,4.8
2022-10-30T23:58:28.442Z,4.7
